Time;durP1;ratioP1;P1;durP2;ratioP2;P2;SDS_P1;SDS_P2;PMS_P1;PMS_P2;Temp;Humidity;BMP_temperature;BMP_pressure;BME280_temperature;BME280_humidity;BME280_pressure;Samples;Min_cycle;Max_cycle;Signal;HPM_P1;HPM_P2
2023/08/14 00:00:11;;;;;;;0.10;0.10;;;;;;;22.56;62.19;101604.13;5061856;28;20039;-87
2023/08/14 00:02:36;;;;;;;0.10;0.10;;;;;;;22.52;62.41;101598.28;5079885;28;20019;-87
2023/08/14 00:05:02;;;;;;;0.10;0.10;;;;;;;22.47;62.49;101578.53;5080582;28;20028;-87
2023/08/14 00:07:27;;;;;;;0.10;0.10;;;;;;;22.54;62.65;101601.63;5063352;28;20027;-86
2023/08/14 00:09:53;;;;;;;0.10;0.10;;;;;;;22.54;62.81;101601.63;5063286;28;20054;-87
2023/08/14 00:12:18;;;;;;;0.15;0.15;;;;;;;22.63;62.49;101605.28;5080138;28;20052;-87
2023/08/14 00:14:43;;;;;;;0.10;0.10;;;;;;;22.51;62.51;101595.75;5063257;28;20020;-86
2023/08/14 00:17:09;;;;;;;0.10;0.10;;;;;;;22.44;62.48;101584.06;5096601;28;20159;-87
2023/08/14 00:19:34;;;;;;;0.10;0.10;;;;;;;22.53;62.29;101605.22;5063138;28;20092;-87
2023/08/14 00:22:00;;;;;;;0.10;0.10;;;;;;;22.54;62.31;101608.69;5062802;28;20027;-88
2023/08/14 00:24:25;;;;;;;0.10;0.10;;;;;;;22.52;62.07;101600.94;5079452;28;20024;-88
2023/08/14 00:26:51;;;;;;;0.10;0.10;;;;;;;22.33;62.82;101587.59;5062860;28;20055;-86
2023/08/14 00:29:16;;;;;;;0.10;0.10;;;;;;;22.47;62.85;101610.16;5062766;28;20035;-87
2023/08/14 00:31:41;;;;;;;0.10;0.10;;;;;;;22.53;62.73;101601.75;5079423;28;20040;-87
2023/08/14 00:34:07;;;;;;;0.10;0.10;;;;;;;22.58;62.76;101605.66;5079383;28;20024;-86
2023/08/14 00:36:32;;;;;;;0.10;0.10;;;;;;;22.60;62.28;101594.97;5079563;28;20036;-87
2023/08/14 00:38:58;;;;;;;0.10;0.10;;;;;;;22.58;61.56;101608.31;5096229;28;20023;-86
2023/08/14 00:41:23;;;;;;;0.10;0.10;;;;;;;22.62;61.28;101598.34;5079467;28;20043;-87
2023/08/14 00:43:49;;;;;;;0.10;0.10;;;;;;;22.53;61.78;101607.88;5079119;28;20477;-87
2023/08/14 00:46:15;;;;;;;0.10;0.10;;;;;;;22.52;61.37;101614.09;5096084;28;20042;-88
2023/08/14 00:48:40;;;;;;;0.10;0.10;;;;;;;22.48;61.49;101615.31;5062650;28;20028;-87
2023/08/14 00:51:05;;;;;;;0.10;0.10;;;;;;;22.46;61.50;101608.50;5062664;28;20125;-87
2023/08/14 00:53:31;;;;;;;0.10;0.10;;;;;;;22.33;61.61;101603.41;5079076;28;20028;-88
2023/08/14 00:55:56;;;;;;;0.10;0.10;;;;;;;22.38;61.15;101595.94;5078923;28;20031;-87
2023/08/14 00:58:22;;;;;;;0.10;0.10;;;;;;;22.31;62.02;101605.31;5079275;28;20481;-87
2023/08/14 01:00:47;;;;;;;0.10;0.10;;;;;;;22.35;61.92;101617.31;5078916;28;20077;-88
2023/08/14 01:03:13;;;;;;;0.10;0.10;;;;;;;22.33;62.00;101603.41;5062357;28;20024;-87
2023/08/14 01:05:38;;;;;;;0.10;0.10;;;;;;;22.32;61.90;101605.22;5078876;28;20031;-88
2023/08/14 01:08:04;;;;;;;0.10;0.10;;;;;;;22.30;61.71;101601.03;5061921;28;20503;-88
2023/08/14 01:10:48;;;;;;;0.10;0.10;;;;;;;22.36;61.73;101618.97;5078752;28;20024;-87
2023/08/14 01:13:18;;;;;;;0.10;0.10;;;;;;;22.28;61.84;101614.34;5095762;28;20039;-87
2023/08/14 01:15:45;;;;;;;0.10;0.10;;;;;;;22.19;62.08;101596.63;5078493;28;20019;-86
2023/08/14 01:18:12;;;;;;;0.10;0.10;;;;;;;22.17;62.55;101608.28;5078728;28;20028;-87
2023/08/14 01:20:38;;;;;;;0.10;0.10;;;;;;;22.10;62.50;101600.03;5078858;28;20027;-88
2023/08/14 01:23:11;;;;;;;0.10;0.10;;;;;;;22.10;62.88;101610.56;5078533;28;20027;-88
2023/08/14 01:25:37;;;;;;;0.10;0.10;;;;;;;22.07;62.86;101617.91;5079450;28;20416;-87
2023/08/14 01:28:03;;;;;;;0.10;0.10;;;;;;;21.98;63.18;101601.00;5061719;28;20051;-87
2023/08/14 01:30:28;;;;;;;0.10;0.10;;;;;;;21.90;63.57;101614.81;5061636;28;20058;-88
2023/08/14 01:32:54;;;;;;;0.10;0.10;;;;;;;21.79;63.59;101608.72;5078553;28;20020;-86
2023/08/14 01:35:25;;;;;;;0.10;0.10;;;;;;;21.81;63.60;101607.63;5078380;28;20447;-87
2023/08/14 01:38:09;;;;;;;0.10;0.10;;;;;;;21.89;64.16;101617.56;5095283;28;20110;-88
2023/08/14 01:40:43;;;;;;;0.10;0.10;;;;;;;21.75;64.32;101605.53;5078912;28;20059;-88
2023/08/14 01:43:13;;;;;;;0.10;0.10;;;;;;;21.90;63.45;101614.81;5077978;28;20521;-87
2023/08/14 01:45:38;;;;;;;0.20;0.20;;;;;;;21.81;63.28;101614.72;5078759;28;20030;-87
2023/08/14 01:48:06;;;;;;;0.10;0.10;;;;;;;21.81;63.74;101618.19;5061528;28;20028;-87
2023/08/14 01:50:32;;;;;;;0.10;0.10;;;;;;;21.72;63.33;101605.75;5078032;28;20020;-87
2023/08/14 01:52:57;;;;;;;0.10;0.10;;;;;;;21.77;62.82;101616.75;5061368;28;20031;-87
2023/08/14 01:55:24;;;;;;;0.10;0.10;;;;;;;21.84;63.05;101623.22;5061378;28;20024;-87
2023/08/14 01:57:51;;;;;;;0.10;0.10;;;;;;;21.64;63.89;101605.56;5061188;28;20098;-87
2023/08/14 02:00:17;;;;;;;0.10;0.10;;;;;;;21.65;63.65;101610.69;5077968;28;20046;-87
2023/08/14 02:02:42;;;;;;;0.10;0.10;;;;;;;21.80;63.29;101618.31;5061351;28;20122;-87
2023/08/14 02:05:08;;;;;;;0.10;0.10;;;;;;;21.67;63.03;101598.22;5061134;28;20101;-88
2023/08/14 02:07:33;;;;;;;0.15;0.15;;;;;;;21.79;62.63;101620.09;5094713;28;20063;-88
2023/08/14 02:09:58;;;;;;;0.10;0.10;;;;;;;21.68;62.89;101620.13;5061167;28;20473;-87
2023/08/14 02:12:24;;;;;;;0.10;0.10;;;;;;;21.69;62.92;101611.28;5077528;28;20051;-87
2023/08/14 02:14:49;;;;;;;0.10;0.10;;;;;;;21.80;62.55;101627.03;5061079;28;20035;-87
2023/08/14 02:17:15;;;;;;;0.10;0.10;;;;;;;21.82;62.56;101625.13;5077723;28;20401;-87
2023/08/14 02:19:40;;;;;;;0.10;0.10;;;;;;;21.72;63.20;101629.44;5060873;28;20027;-88
2023/08/14 02:22:06;;;;;;;0.10;0.10;;;;;;;21.66;63.56;101635.22;5076756;28;20032;-87
2023/08/14 02:24:31;;;;;;;0.10;0.10;;;;;;;21.44;64.04;101613.22;5077403;28;20035;-87
2023/08/14 02:26:56;;;;;;;0.10;0.10;;;;;;;21.58;63.94;101627.09;5060298;28;20055;-87
2023/08/14 02:29:22;;;;;;;0.20;0.20;;;;;;;21.55;64.40;101643.13;5077724;28;20032;-87
2023/08/14 02:31:50;;;;;;;0.20;0.20;;;;;;;21.50;64.45;101645.28;5060568;28;20495;-87
2023/08/14 02:34:46;;;;;;;0.10;0.10;;;;;;;21.51;64.47;101652.22;5061307;28;20024;-88
2023/08/14 02:37:13;;;;;;;0.10;0.10;;;;;;;21.55;64.13;101654.50;5062845;28;20020;-87
2023/08/14 02:39:38;;;;;;;0.10;0.10;;;;;;;21.40;64.65;101650.44;5077114;28;20043;-87
2023/08/14 02:42:04;;;;;;;0.10;0.10;;;;;;;21.42;64.95;101649.34;5093736;28;20546;-87
2023/08/14 02:44:29;;;;;;;0.20;0.20;;;;;;;21.50;64.91;101661.09;5060438;28;20023;-87
2023/08/14 02:46:56;;;;;;;0.10;0.10;;;;;;;21.42;65.44;101656.41;5060418;28;20544;-87
2023/08/14 02:49:21;;;;;;;0.17;0.17;;;;;;;21.46;65.26;101656.06;5077222;28;20038;-87
2023/08/14 02:51:47;;;;;;;0.20;0.20;;;;;;;21.42;65.28;101654.63;5060382;28;20031;-86
2023/08/14 02:54:12;;;;;;;0.10;0.10;;;;;;;21.44;65.03;101650.09;5076763;28;20053;-87
2023/08/14 02:56:37;;;;;;;0.10;0.10;;;;;;;21.37;64.94;101634.88;5093641;28;20515;-86
2023/08/14 02:59:03;;;;;;;0.10;0.10;;;;;;;21.68;62.85;101667.53;5112930;28;20050;-88
2023/08/14 03:02:18;;;;;;;0.10;0.10;;;;;;;21.88;62.05;101671.22;5062616;28;20027;-88
2023/08/14 03:28:48;;;;;;;0.20;0.20;;;;;;;21.10;64.04;101669.41;5099674;27;20101;-88
2023/08/14 03:31:15;;;;;;;0.10;0.10;;;;;;;21.06;63.86;101662.72;5058952;28;20056;-87
2023/08/14 03:33:40;;;;;;;0.10;0.10;;;;;;;21.14;64.02;101669.06;5057509;28;20062;-89
2023/08/14 03:36:06;;;;;;;0.10;0.10;;;;;;;21.18;64.09;101678.38;5041129;28;20032;-87
2023/08/14 03:38:31;;;;;;;0.10;0.10;;;;;;;21.09;63.60;101663.31;5058207;28;20036;-87
2023/08/14 03:40:57;;;;;;;0.10;0.10;;;;;;;21.26;63.45;101685.75;5057579;28;20027;-88
2023/08/14 03:43:23;;;;;;;0.10;0.10;;;;;;;21.35;63.67;101687.66;5057822;28;20031;-87
2023/08/14 03:46:15;;;;;;;0.20;0.20;;;;;;;21.32;62.98;101690.50;5058060;28;20020;-90
2023/08/14 03:48:40;;;;;;;0.10;0.10;;;;;;;21.19;62.89;101684.50;5045860;28;20067;-87
2023/08/14 03:51:05;;;;;;;0.10;0.10;;;;;;;21.23;62.14;101688.56;5039075;28;20047;-86
2023/08/14 03:53:31;;;;;;;0.10;0.10;;;;;;;21.28;62.22;101698.78;5044501;28;20028;-90
2023/08/14 03:55:57;;;;;;;0.10;0.10;;;;;;;21.17;62.65;101696.94;5041930;28;20107;-89
2023/08/14 03:58:22;;;;;;;0.20;0.20;;;;;;;21.15;62.61;101709.38;5057301;28;20035;-90
2023/08/14 04:00:48;;;;;;;0.20;0.20;;;;;;;21.05;62.35;101703.13;5040137;28;20373;-91
2023/08/14 04:03:13;;;;;;;0.10;0.10;;;;;;;20.98;62.83;101704.56;5040307;28;20028;-90
2023/08/14 04:05:39;;;;;;;0.17;0.17;;;;;;;21.08;62.64;101702.91;5040218;28;20075;-91
2023/08/14 04:08:06;;;;;;;0.10;0.10;;;;;;;21.04;62.21;101712.81;5057187;28;20100;-90
2023/08/14 04:10:32;;;;;;;0.20;0.20;;;;;;;21.07;62.65;101706.50;5040359;28;20039;-88
2023/08/14 04:12:57;;;;;;;0.10;0.10;;;;;;;21.18;62.50;101722.28;5040031;28;20036;-89
2023/08/14 04:15:23;;;;;;;0.20;0.20;;;;;;;21.18;62.23;101719.66;5039207;28;20060;-89
2023/08/14 04:17:48;;;;;;;0.20;0.20;;;;;;;21.20;61.74;101712.47;5000231;28;20025;-89
2023/08/14 04:20:14;;;;;;;0.10;0.10;;;;;;;21.35;61.73;101716.59;5006145;28;20036;-91
2023/08/14 04:22:39;;;;;;;0.10;0.10;;;;;;;21.34;61.89;101711.47;5035191;28;20114;-88
2023/08/14 04:25:05;;;;;;;0.10;0.10;;;;;;;21.69;60.70;101727.13;5019917;28;20028;-90
2023/08/14 04:27:32;;;;;;;0.20;0.20;;;;;;;21.68;60.73;101728.94;5019909;28;20517;-88
2023/08/14 04:29:57;;;;;;;0.10;0.10;;;;;;;21.91;60.06;101728.91;5062643;28;20035;-93
2023/08/14 04:32:23;;;;;;;0.20;0.20;;;;;;;22.11;58.96;101724.72;5056521;28;20150;-92
2023/08/14 04:34:52;;;;;;;0.10;0.10;;;;;;;21.97;58.86;101737.19;5050262;28;20495;-92
2023/08/14 04:37:17;;;;;;;0.10;0.10;;;;;;;22.03;59.29;101738.50;5064092;28;20528;-89
2023/08/14 04:39:43;;;;;;;0.20;0.20;;;;;;;21.94;59.31;101732.16;5107332;23;20047;-92
2023/08/14 04:42:08;;;;;;;0.10;0.10;;;;;;;22.13;58.99;101741.28;5080727;28;20577;-86
2023/08/14 04:44:33;;;;;;;0.10;0.10;;;;;;;22.03;59.03;101738.50;5111860;27;20034;-86
2023/08/14 04:47:03;;;;;;;0.20;0.20;;;;;;;22.00;59.00;101744.84;5101386;27;20031;-92
2023/08/14 04:49:28;;;;;;;0.10;0.10;;;;;;;22.03;58.85;101755.16;5096509;27;20512;-92
2023/08/14 04:51:54;;;;;;;0.10;0.10;;;;;;;21.93;58.78;101735.75;5105899;27;20027;-89
2023/08/14 04:54:19;;;;;;;0.10;0.10;;;;;;;22.11;58.84;101764.25;5099216;28;20034;-90
2023/08/14 04:56:44;;;;;;;0.10;0.10;;;;;;;21.98;59.13;101757.28;5081560;28;20024;-90
2023/08/14 04:59:10;;;;;;;0.10;0.10;;;;;;;21.81;59.67;101763.03;5073724;27;20018;-92
2023/08/14 05:01:35;;;;;;;0.20;0.20;;;;;;;21.91;60.13;101769.25;5083569;28;20028;-92
2023/08/14 05:04:01;;;;;;;0.20;0.20;;;;;;;22.07;59.18;101765.47;5066254;28;20032;-90
2023/08/14 05:06:26;;;;;;;0.10;0.10;;;;;;;22.32;58.92;101779.22;5114138;27;20027;-91
2023/08/14 05:08:52;;;;;;;0.20;0.20;;;;;;;22.71;57.84;101776.06;5108514;27;20023;-93
2023/08/14 05:11:17;;;;;;;0.10;0.10;;;;;;;22.78;56.94;101751.72;5087114;27;20031;-88
2023/08/14 05:13:44;;;;;;;0.10;0.10;;;;;;;22.78;56.90;101771.97;5095452;28;20469;-89
2023/08/14 05:16:10;;;;;;;0.20;0.20;;;;;;;22.57;57.56;101764.88;5101753;28;20095;-92
2023/08/14 05:18:35;;;;;;;0.20;0.20;;;;;;;22.48;57.90;101754.22;5088377;27;20084;-93
2023/08/14 05:21:01;;;;;;;0.20;0.20;;;;;;;22.75;57.93;101785.44;5102088;27;20031;-90
2023/08/14 05:23:26;;;;;;;0.10;0.10;;;;;;;22.81;56.92;101779.63;5083491;27;20031;-92
2023/08/14 05:25:52;;;;;;;0.20;0.20;;;;;;;22.75;57.84;101785.44;5100372;27;20058;-90
2023/08/14 05:28:17;;;;;;;0.20;0.20;;;;;;;22.63;58.45;101795.19;5081024;27;20057;-90
2023/08/14 05:30:44;;;;;;;0.20;0.20;;;;;;;22.49;58.67;101792.81;5098207;27;20042;-89
2023/08/14 05:33:09;;;;;;;0.20;0.20;;;;;;;22.56;58.75;101791.38;5085963;27;20019;-87
2023/08/14 05:35:35;;;;;;;0.17;0.17;;;;;;;22.67;57.63;101791.31;5115666;27;20495;-93
2023/08/14 05:38:00;;;;;;;0.10;0.10;;;;;;;22.72;57.99;101798.88;5082893;27;20026;-92
2023/08/14 05:40:26;;;;;;;0.20;0.20;;;;;;;22.73;58.65;101800.56;5083123;27;20123;-88
2023/08/14 05:43:05;;;;;;;0.20;0.20;;;;;;;22.92;58.41;101787.56;5079556;28;20027;-91
2023/08/14 05:45:34;;;;;;;0.20;0.20;;;;;;;22.95;57.74;101792.56;5073025;27;20063;-89
2023/08/14 05:48:00;;;;;;;0.20;0.20;;;;;;;23.01;58.07;101793.84;5099665;27;20037;-90
2023/08/14 05:50:27;;;;;;;0.10;0.10;;;;;;;23.10;58.41;101804.47;5075949;27;20092;-90
2023/08/14 05:53:04;;;;;;;0.20;0.20;;;;;;;23.23;57.77;101785.81;5099021;27;20480;-87
2023/08/14 05:55:40;;;;;;;0.10;0.10;;;;;;;23.08;57.58;101785.28;5102949;27;20079;-94
2023/08/14 05:58:06;;;;;;;0.20;0.20;;;;;;;23.16;57.54;101795.22;5082075;27;20022;-87
2023/08/14 06:00:32;;;;;;;0.17;0.17;;;;;;;23.30;57.65;101794.88;5115138;27;20083;-89
2023/08/14 06:02:57;;;;;;;0.20;0.20;;;;;;;23.34;56.40;101769.91;5092369;28;20035;-89
2023/08/14 06:05:22;;;;;;;0.20;0.20;;;;;;;23.65;56.87;101794.56;5108565;27;20030;-92
2023/08/14 06:07:54;;;;;;;0.20;0.20;;;;;;;23.70;54.81;101791.56;5100878;27;20072;-93
2023/08/14 06:10:20;;;;;;;0.10;0.10;;;;;;;23.69;51.69;101801.25;5100270;27;20027;-92
2023/08/14 06:12:46;;;;;;;0.20;0.20;;;;;;;23.64;53.40;101802.63;5064606;27;20119;-91
2023/08/14 06:15:12;;;;;;;0.20;0.20;;;;;;;23.79;53.40;101805.75;5098715;27;20027;-88
2023/08/14 06:17:38;;;;;;;0.20;0.20;;;;;;;23.94;54.42;101799.16;5099207;27;20094;-92
2023/08/14 06:20:04;;;;;;;0.20;0.20;;;;;;;24.15;53.72;101805.19;5101453;27;20054;-92
2023/08/14 06:22:30;;;;;;;0.20;0.20;;;;;;;24.39;52.31;101799.59;5082004;27;20059;-93
2023/08/14 06:24:55;;;;;;;0.20;0.20;;;;;;;24.21;51.58;101780.88;5078325;28;20043;-90
2023/08/14 06:27:20;;;;;;;0.20;0.20;;;;;;;24.42;51.99;101803.78;5094756;28;20440;-87
2023/08/14 06:29:47;;;;;;;0.20;0.20;;;;;;;24.43;52.49;101808.09;5103466;27;20080;-90
2023/08/14 06:32:12;;;;;;;0.20;0.20;;;;;;;24.16;50.69;101787.53;5114337;27;20476;-89
2023/08/14 06:34:37;;;;;;;0.20;0.20;;;;;;;24.51;51.78;101808.25;5097207;27;20030;-87
2023/08/14 06:37:03;;;;;;;0.20;0.20;;;;;;;24.30;50.65;101780.06;5098511;27;20484;-90
2023/08/14 06:39:29;;;;;;;0.20;0.20;;;;;;;24.42;49.37;101806.41;5114466;27;20047;-93
2023/08/14 06:41:54;;;;;;;0.10;0.10;;;;;;;24.64;49.71;101810.63;5094519;28;20085;-87
2023/08/14 06:44:20;;;;;;;0.10;0.10;;;;;;;24.70;49.82;101810.06;5093365;27;20381;-92
2023/08/14 06:46:45;;;;;;;0.20;0.20;;;;;;;24.75;50.96;101816.59;5100922;27;20035;-91
2023/08/14 06:49:11;;;;;;;0.20;0.20;;;;;;;24.69;49.57;101819.81;5074430;27;20061;-93
2023/08/14 06:51:40;;;;;;;0.20;0.20;;;;;;;24.70;49.98;101810.91;5084408;27;20405;-92
2023/08/14 06:54:06;;;;;;;0.20;0.20;;;;;;;24.70;49.00;101823.31;5119879;27;20091;-93
2023/08/14 06:56:31;;;;;;;0.20;0.20;;;;;;;24.64;48.97;101814.09;5089329;27;20046;-90
2023/08/14 06:58:57;;;;;;;0.20;0.20;;;;;;;24.74;51.53;101825.53;5078170;28;20032;-92
2023/08/14 07:01:23;;;;;;;0.20;0.20;;;;;;;24.94;48.94;101814.94;5087756;27;20503;-91
2023/08/14 07:03:48;;;;;;;0.20;0.20;;;;;;;25.01;49.82;101824.84;5121134;27;20031;-94
2023/08/14 07:06:14;;;;;;;0.20;0.20;;;;;;;25.18;48.23;101807.44;5075416;28;20104;-86
2023/08/14 07:08:40;;;;;;;0.20;0.20;;;;;;;24.95;48.04;101806.84;5122337;27;20035;-91
2023/08/14 07:11:06;;;;;;;0.20;0.20;;;;;;;25.02;47.85;101812.47;5106972;27;20031;-94
2023/08/14 07:13:32;;;;;;;0.20;0.20;;;;;;;25.21;47.47;101803.69;5119039;27;20045;-92
2023/08/14 07:15:58;;;;;;;0.20;0.20;;;;;;;25.33;46.99;101813.97;5092600;28;20489;-90
2023/08/14 07:18:24;;;;;;;0.20;0.20;;;;;;;25.41;47.28;101814.09;5112396;28;20035;-91
2023/08/14 07:20:50;;;;;;;0.20;0.20;;;;;;;25.39;46.86;101805.47;5118494;27;20026;-92
2023/08/14 07:23:16;;;;;;;0.20;0.20;;;;;;;25.51;46.31;101798.16;5115112;27;20019;-91
2023/08/14 07:25:49;;;;;;;0.20;0.20;;;;;;;25.61;46.39;101806.09;5145796;22;20058;-92
2023/08/14 07:28:17;;;;;;;0.20;0.20;;;;;;;25.62;45.09;101798.00;5146856;27;20058;-93
2023/08/14 07:30:44;;;;;;;0.10;0.10;;;;;;;25.54;45.02;101778.50;5135602;27;20082;-87
2023/08/14 07:33:10;;;;;;;0.20;0.20;;;;;;;25.67;45.10;101802.88;5138131;27;20081;-87
2023/08/14 07:35:36;;;;;;;0.20;0.20;;;;;;;25.50;43.42;101763.88;5154910;27;20049;-91
2023/08/14 07:38:04;;;;;;;0.20;0.20;;;;;;;25.73;44.00;101792.53;5154814;27;20510;-91
2023/08/14 07:40:30;;;;;;;0.17;0.17;;;;;;;25.89;43.32;101791.09;5143949;27;20113;-87
2023/08/14 07:42:55;;;;;;;0.20;0.20;;;;;;;26.05;42.79;101801.03;5151772;27;20029;-87
2023/08/14 07:45:21;;;;;;;0.20;0.20;;;;;;;26.04;42.96;101789.59;5136521;27;20026;-91
2023/08/14 07:47:47;;;;;;;0.20;0.20;;;;;;;26.27;42.61;101796.19;5142023;27;20518;-91
2023/08/14 07:50:12;;;;;;;0.20;0.20;;;;;;;26.58;41.53;101799.34;5145122;27;20046;-86
2023/08/14 07:52:38;;;;;;;0.20;0.20;;;;;;;26.49;40.79;101767.59;5133213;27;20050;-88
2023/08/14 07:55:04;;;;;;;0.20;0.20;;;;;;;26.53;41.24;101777.72;5116784;27;20057;-92
2023/08/14 07:57:30;;;;;;;0.20;0.20;;;;;;;26.74;40.43;101787.22;5153391;27;20033;-92
2023/08/14 07:59:55;;;;;;;0.20;0.20;;;;;;;26.82;40.21;101792.59;5138158;27;20023;-91
2023/08/14 08:02:21;;;;;;;0.20;0.20;;;;;;;27.00;41.49;101798.72;5120214;27;20041;-89
2023/08/14 08:04:47;;;;;;;0.20;0.20;;;;;;;27.14;41.25;101800.88;5172808;27;20138;-88
2023/08/14 08:07:13;;;;;;;0.20;0.20;;;;;;;27.29;41.12;101806.44;5135312;27;20019;-91
2023/08/14 08:09:39;;;;;;;0.20;0.20;;;;;;;27.41;41.83;101786.59;5131618;27;20514;-92
2023/08/14 08:12:05;;;;;;;0.20;0.20;;;;;;;27.54;40.70;101791.50;5133523;27;20499;-88
2023/08/14 08:14:31;;;;;;;0.20;0.20;;;;;;;27.62;39.76;101801.31;5101502;27;20049;-92
2023/08/14 08:16:57;;;;;;;0.20;0.20;;;;;;;27.55;40.38;101789.66;5110073;27;20022;-88
2023/08/14 08:19:22;;;;;;;0.20;0.20;;;;;;;27.72;39.16;101800.25;5156023;27;20033;-94
2023/08/14 08:21:48;;;;;;;0.20;0.20;;;;;;;27.82;39.53;101784.16;5121633;27;20026;-92
2023/08/14 08:24:14;;;;;;;0.20;0.20;;;;;;;27.97;39.92;101781.75;5137039;27;20129;-92
2023/08/14 08:26:40;;;;;;;0.20;0.20;;;;;;;28.13;39.86;101784.47;5144262;27;20125;-92
2023/08/14 08:29:07;;;;;;;0.20;0.20;;;;;;;28.29;39.27;101787.19;5132540;27;20462;-91
2023/08/14 08:31:32;;;;;;;0.20;0.20;;;;;;;28.37;39.30;101774.91;5169225;27;20022;-88
2023/08/14 08:33:58;;;;;;;0.20;0.20;;;;;;;28.47;39.06;101759.59;5137637;27;20030;-91
2023/08/14 08:36:23;;;;;;;0.20;0.20;;;;;;;28.55;38.34;101771.09;5135375;27;20054;-88
2023/08/14 08:38:49;;;;;;;0.20;0.20;;;;;;;28.73;37.25;101772.78;5138073;27;20026;-94
2023/08/14 08:41:39;;;;;;;0.20;0.20;;;;;;;28.77;37.10;101768.78;5127434;27;20089;-88
2023/08/14 08:44:30;;;;;;;0.20;0.20;;;;;;;29.07;37.13;101780.59;5142989;27;20061;-91
2023/08/14 08:47:09;;;;;;;0.20;0.20;;;;;;;29.19;37.17;101776.59;5149176;27;20528;-87
2023/08/14 08:49:35;;;;;;;0.20;0.20;;;;;;;29.28;36.81;101769.41;5125616;27;20137;-87
2023/08/14 08:52:01;;;;;;;0.20;0.20;;;;;;;29.48;36.68;101761.88;5122502;27;20376;-87
2023/08/14 08:54:27;;;;;;;0.20;0.20;;;;;;;29.70;36.40;101766.50;5157992;27;20030;-90
2023/08/14 08:56:56;;;;;;;0.20;0.20;;;;;;;29.81;36.14;101765.28;5138893;27;20041;-91
2023/08/14 08:59:21;;;;;;;0.20;0.20;;;;;;;29.79;35.82;101764.59;5123983;27;20030;-90
2023/08/14 09:01:47;;;;;;;0.20;0.20;;;;;;;29.86;35.41;101765.59;5138155;27;20022;-93
2023/08/14 09:04:12;;;;;;;0.20;0.20;;;;;;;29.90;35.23;101762.41;5121226;27;20045;-90
2023/08/14 09:06:38;;;;;;;0.20;0.20;;;;;;;29.86;35.35;101761.09;5142832;27;20022;-93
2023/08/14 09:09:03;;;;;;;0.20;0.20;;;;;;;29.99;35.71;101758.69;5132554;27;20037;-91
2023/08/14 09:11:29;;;;;;;0.20;0.20;;;;;;;30.07;35.46;101757.00;5133121;27;20472;-94
2023/08/14 09:13:54;;;;;;;0.20;0.20;;;;;;;30.15;34.40;101762.31;5110065;27;20027;-88
2023/08/14 09:16:20;;;;;;;0.20;0.20;;;;;;;30.26;34.38;101757.38;5119479;27;20027;-92
2023/08/14 09:18:45;;;;;;;0.20;0.20;;;;;;;30.33;34.07;101752.19;5104914;27;20060;-93
2023/08/14 09:21:13;;;;;;;0.20;0.20;;;;;;;30.34;33.78;101747.66;5165504;27;20033;-93
2023/08/14 09:23:40;;;;;;;0.20;0.20;;;;;;;30.35;34.45;101744.81;5147956;27;20029;-93
2023/08/14 09:26:06;;;;;;;0.20;0.20;;;;;;;30.57;34.09;101743.13;5157918;27;20046;-87
2023/08/14 09:28:32;;;;;;;0.20;0.20;;;;;;;30.83;33.92;101743.63;5154459;27;20026;-90
2023/08/14 09:31:08;;;;;;;0.20;0.20;;;;;;;30.96;32.63;101743.00;5136077;27;20109;-90
2023/08/14 09:33:33;;;;;;;0.20;0.20;;;;;;;30.83;33.23;101724.09;5119478;27;20035;-89
2023/08/14 09:35:59;;;;;;;0.20;0.20;;;;;;;31.03;33.12;101738.59;5134390;27;20498;-89
2023/08/14 09:38:24;;;;;;;0.20;0.20;;;;;;;31.21;32.79;101732.09;5119484;27;20114;-93
2023/08/14 09:40:55;;;;;;;0.20;0.20;;;;;;;31.35;32.40;101731.25;5124102;27;20019;-91
2023/08/14 09:43:20;;;;;;;0.20;0.20;;;;;;;31.36;32.78;101717.69;5118553;27;20111;-87
2023/08/14 09:45:46;;;;;;;0.20;0.20;;;;;;;31.52;32.53;101730.03;5113494;27;20476;-89
2023/08/14 09:48:12;;;;;;;0.20;0.20;;;;;;;31.52;32.76;101724.69;5130304;27;20029;-87
2023/08/14 09:50:37;;;;;;;0.20;0.20;;;;;;;31.67;32.63;101720.19;5122480;27;20047;-89
2023/08/14 09:53:03;;;;;;;0.20;0.20;;;;;;;31.72;33.51;101716.09;5132325;27;20027;-90
2023/08/14 09:55:28;;;;;;;0.20;0.20;;;;;;;31.69;33.23;101707.44;5144912;27;20034;-92
2023/08/14 09:57:57;;;;;;;0.20;0.20;;;;;;;31.79;32.84;101707.16;5143426;27;20023;-91
2023/08/14 10:00:29;;;;;;;0.20;0.20;;;;;;;31.99;33.08;101714.59;5156558;27;20038;-89
2023/08/14 10:02:55;;;;;;;0.20;0.20;;;;;;;32.09;32.09;101707.91;5142170;27;20121;-94
2023/08/14 10:05:20;;;;;;;0.25;0.25;;;;;;;32.11;32.19;101705.03;5157716;27;20038;-92
2023/08/14 10:07:46;;;;;;;0.28;0.28;;;;;;;32.39;31.36;101707.81;5133565;27;20030;-91
2023/08/14 10:10:13;;;;;;;0.20;0.20;;;;;;;32.58;31.06;101700.97;5139375;27;20088;-87
2023/08/14 10:13:04;;;;;;;0.20;0.20;;;;;;;32.59;31.33;101702.63;5151565;27;20027;-90
2023/08/14 10:15:46;;;;;;;0.20;0.20;;;;;;;32.61;30.61;101698.72;5155930;27;20030;-92
2023/08/14 10:18:15;;;;;;;0.20;0.20;;;;;;;32.45;31.25;101686.44;5155585;27;20030;-93
2023/08/14 10:20:42;;;;;;;0.25;0.25;;;;;;;32.47;30.98;101683.56;5117975;27;20075;-87
2023/08/14 10:23:08;;;;;;;0.20;0.20;;;;;;;32.14;30.76;101661.81;5140311;27;20487;-92
2023/08/14 10:25:37;;;;;;;0.20;0.20;;;;;;;32.42;31.31;101680.63;5156130;27;20091;-90
2023/08/14 10:28:03;;;;;;;0.25;0.25;;;;;;;32.57;30.47;101683.22;5145027;27;20559;-90
2023/08/14 10:30:28;;;;;;;0.20;0.20;;;;;;;32.63;30.33;101671.72;5135133;27;20027;-89
2023/08/14 10:32:54;;;;;;;0.20;0.20;;;;;;;32.77;30.55;101673.47;5153716;27;20030;-89
2023/08/14 10:35:20;;;;;;;0.20;0.20;;;;;;;32.82;29.79;101658.47;5155860;27;20075;-91
2023/08/14 10:37:49;;;;;;;0.20;0.20;;;;;;;32.95;30.75;101656.94;5122719;27;20023;-92
2023/08/14 10:40:24;;;;;;;0.20;0.20;;;;;;;32.90;29.84;101665.56;5126073;27;20030;-94
2023/08/14 10:42:57;;;;;;;0.20;0.20;;;;;;;32.87;30.34;101657.91;5133142;27;20034;-86
2023/08/14 10:45:24;;;;;;;0.30;0.30;;;;;;;32.99;29.74;101658.19;5102497;27;20122;-93
2023/08/14 10:47:50;;;;;;;0.20;0.20;;;;;;;33.14;28.90;101650.00;5118373;27;20678;-90
2023/08/14 10:50:18;;;;;;;0.20;0.20;;;;;;;32.96;29.72;101645.19;5135964;27;20083;-94
2023/08/14 10:52:45;;;;;;;0.30;0.30;;;;;;;33.11;29.68;101635.16;5123000;27;20043;-93
2023/08/14 10:55:16;;;;;;;0.20;0.20;;;;;;;33.20;28.70;101636.63;5133849;27;20048;-90
2023/08/14 10:57:44;;;;;;;0.22;0.22;;;;;;;32.96;29.51;101626.44;5121487;27;20026;-92
2023/08/14 11:00:26;;;;;;;0.20;0.20;;;;;;;33.30;29.02;101633.56;5116776;27;20023;-85
2023/08/14 11:03:05;;;;;;;0.20;0.20;;;;;;;33.33;29.10;101620.63;5100066;27;20027;-90
2023/08/14 11:05:40;;;;;;;0.20;0.20;;;;;;;33.48;28.90;101622.34;5115946;27;20019;-92
2023/08/14 11:08:07;;;;;;;0.20;0.20;;;;;;;33.42;28.23;101596.31;5120893;27;20031;-89
2023/08/14 11:10:35;;;;;;;0.20;0.20;;;;;;;33.86;28.20;101633.34;5135211;27;20023;-92
2023/08/14 11:13:06;;;;;;;0.20;0.20;;;;;;;33.99;27.48;101624.50;5124524;27;20027;-93
2023/08/14 11:15:34;;;;;;;0.25;0.25;;;;;;;34.09;27.40;101611.50;5122447;27;20167;-91
2023/08/14 11:18:01;;;;;;;0.20;0.20;;;;;;;34.15;27.69;101614.19;5119464;27;20027;-93
2023/08/14 11:20:30;;;;;;;0.20;0.20;;;;;;;34.20;27.31;101608.19;5152533;27;20057;-90
2023/08/14 11:22:55;;;;;;;0.20;0.20;;;;;;;34.30;26.41;101599.72;5157521;27;20022;-92
2023/08/14 11:25:24;;;;;;;0.30;0.30;;;;;;;34.41;26.41;101601.81;5136765;27;20057;-94
2023/08/14 11:27:51;;;;;;;0.20;0.20;;;;;;;34.45;25.96;101598.50;5127179;27;20032;-93
2023/08/14 11:30:21;;;;;;;0.30;0.30;;;;;;;34.19;27.63;101595.81;5125379;27;20026;-92
2023/08/14 11:32:47;;;;;;;0.30;0.30;;;;;;;34.40;27.16;101590.22;5131718;27;20042;-92
2023/08/14 11:35:13;;;;;;;0.20;0.20;;;;;;;34.46;26.58;101586.72;5132082;27;20018;-89
2023/08/14 11:37:38;;;;;;;0.30;0.30;;;;;;;34.57;25.96;101590.63;5161579;27;20026;-89
2023/08/14 11:40:08;;;;;;;0.30;0.30;;;;;;;34.57;26.07;101579.06;5121249;27;20121;-91
2023/08/14 11:42:34;;;;;;;0.30;0.30;;;;;;;34.63;26.57;101583.59;5135301;27;20496;-92
2023/08/14 11:45:03;;;;;;;0.20;0.20;;;;;;;34.72;26.57;101585.03;5120357;27;20073;-93
2023/08/14 11:47:47;;;;;;;0.30;0.30;;;;;;;34.72;26.34;101579.66;5121756;27;20022;-89